| time (UTC) | temp F | wind direction | speed MPH | gust MPH | rain 1hr in | rain 24hr in | rain mn in | humidity % | barometer mb |
| 20260902231525 | 75 | 211 | 0.0 | 0.0 | 0.00 | 0.00 | 0.36 | 100 | 1016.3 |
| 20260902230016 | 75 | 211 | 0.0 | 0.0 | 0.00 | 0.00 | 0.36 | 100 | 1016.4 |
| 20260902224512 | 75 | 210 | 0.0 | 0.0 | 0.00 | 0.00 | 0.36 | 100 | 1016.6 |
| 20260902223008 | 75 | 210 | 0.0 | 0.0 | 0.00 | 0.00 | 0.36 | 100 | 1016.4 |
| 20260902221503 | 75 | 210 | 0.0 | 0.0 | 0.00 | 0.00 | 0.36 | 100 | 1016.4 |
| 20260902214604 | 74 | 211 | 0.0 | 0.0 | 0.00 | 0.00 | 0.36 | 100 | 1017.0 |
| 20260902213051 | 75 | 211 | 0.0 | 0.0 | 0.00 | 0.00 | 0.36 | 100 | 1017.0 |
| 20260902211546 | 74 | 213 | 0.0 | 0.0 | 0.00 | 0.00 | 0.36 | 100 | 1017.0 |
| 20260902210041 | 73 | 213 | 0.0 | 0.0 | 0.00 | 0.00 | 0.36 | 100 | 1017.2 |
| 20260902204537 | 74 | 213 | 0.0 | 0.0 | 0.00 | 0.00 | 0.36 | 100 | 1017.0 |
| 20260902203032 | 73 | 213 | 0.0 | 0.0 | 0.00 | 0.00 | 0.36 | 100 | 1016.9 |
| 20260902201529 | 73 | 213 | 2.0 | 0.0 | 0.00 | 0.00 | 0.36 | 100 | 1017.1 |
| 20260902200027 | 73 | 322 | 0.0 | 0.0 | 0.00 | 0.00 | 0.36 | 100 | 1017.1 |
| 20260902194519 | 73 | 322 | 0.0 | 0.0 | 0.00 | 0.00 | 0.36 | 100 | 1016.4 |
| 20260902193015 | 73 | 323 | 1.0 | 0.0 | 0.00 | 0.00 | 0.36 | 100 | 1016.6 |
| 20260902191511 | 73 | 317 | 1.0 | 0.0 | 0.00 | 0.00 | 0.36 | 100 | 1016.3 |
| 20260902190008 | 73 | 235 | 0.0 | 0.0 | 0.00 | 0.00 | 0.36 | 100 | 1016.4 |
| 20260902184502 | 73 | 219 | 0.0 | 0.0 | 0.00 | 0.00 | 0.36 | 100 | 1017.3 |
| 20260902183058 | 72 | 219 | 0.0 | 0.0 | 0.00 | 0.00 | 0.36 | 100 | 1017.5 |
| 20260902181607 | 73 | 219 | 0.0 | 0.0 | 0.00 | 0.00 | 0.36 | 100 | 1017.8 |
| 20260902180048 | 73 | 276 | 1.0 | 0.0 | 0.00 | 0.00 | 0.36 | 100 | 1017.8 |
| 20260902174545 | 74 | 336 | 3.0 | 0.0 | 0.00 | 0.00 | 0.32 | 100 | 1019.5 |
| 20260902173042 | 76 | 24 | 8.0 | 0.0 | 0.00 | 0.00 | 0.25 | 100 | 1020.4 |
| 20260902171553 | 79 | 94 | 7.0 | 0.0 | 0.00 | 0.00 | 0.00 | 100 | 1020.3 |
| 20260902170032 | 79 | 23 | 3.0 | 0.0 | 0.00 | 0.00 | 0.00 | 100 | 1018.6 |
| 20260902164530 | 79 | 48 | 4.0 | 0.0 | 0.00 | 0.00 | 0.00 | 100 | 1018.4 |
| 20260902163023 | 79 | 77 | 4.0 | 0.0 | 0.00 | 0.00 | 0.00 | 100 | 1018.1 |
| 20260902161529 | 79 | 59 | 3.0 | 0.0 | 0.00 | 0.00 | 0.00 | 100 | 1018.0 |
| 20260902160014 | 79 | 46 | 4.0 | 0.0 | 0.00 | 0.00 | 0.00 | 100 | 1017.9 |
| 20260902154511 | 79 | 29 | 3.0 | 0.0 | 0.00 | 0.00 | 0.00 | 100 | 1017.7 |
| 20260902153006 | 78 | 59 | 4.0 | 0.0 | 0.00 | 0.00 | 0.00 | 100 | 1017.7 |
| 20260902151501 | 79 | 77 | 3.0 | 0.0 | 0.00 | 0.00 | 0.00 | 100 | 1017.5 |
| 20260902150057 | 78 | 85 | 3.0 | 0.0 | 0.00 | 0.00 | 0.00 | 100 | 1017.6 |
| 20260902144557 | 79 | 74 | 3.0 | 0.0 | 0.00 | 0.00 | 0.00 | 100 | 1017.5 |
| 20260902143047 | 79 | 65 | 3.0 | 0.0 | 0.00 | 0.00 | 0.00 | 100 | 1017.5 |
| 20260902141549 | 78 | 58 | 3.0 | 0.0 | 0.00 | 0.00 | 0.00 | 100 | 1017.8 |
| 20260902140039 | 78 | 117 | 2.0 | 0.0 | 0.00 | 0.00 | 0.00 | 100 | 1017.6 |
| 20260902134539 | 77 | 26 | 3.0 | 0.0 | 0.00 | 0.00 | 0.00 | 100 | 1017.5 |
| 20260902133032 | 77 | 78 | 1.0 | 0.0 | 0.00 | 0.00 | 0.00 | 100 | 1017.7 |
| 20260902131525 | 76 | 82 | 2.0 | 0.0 | 0.00 | 0.00 | 0.00 | 100 | 1017.5 |
| 20260902130021 | 76 | 88 | 1.0 | 0.0 | 0.00 | 0.00 | 0.00 | 100 | 1017.3 |
| 20260902124517 | 75 | 67 | 3.0 | 0.0 | 0.00 | 0.00 | 0.00 | 100 | 1017.3 |
| 20260902123013 | 75 | 39 | 3.0 | 0.0 | 0.00 | 0.00 | 0.00 | 100 | 1017.1 |
| 20260902121509 | 75 | 65 | 1.0 | 0.0 | 0.00 | 0.00 | 0.00 | 100 | 1016.9 |
| 20260902120003 | 74 | 56 | 1.0 | 0.0 | 0.00 | 0.00 | 0.00 | 100 | 1016.9 |
| 20260902114600 | 74 | 38 | 0.0 | 0.0 | 0.00 | 0.00 | 0.00 | 100 | 1016.8 |
| 20260902113059 | 73 | 38 | 0.0 | 0.0 | 0.00 | 0.00 | 0.00 | 100 | 1016.7 |
| 20260902111553 | 73 | 42 | 0.0 | 0.0 | 0.00 | 0.00 | 0.00 | 100 | 1016.8 |
| 20260902110046 | 73 | 42 | 0.0 | 0.0 | 0.00 | 0.00 | 0.00 | 100 | 1016.8 |
| 20260902104543 | 73 | 42 | 0.0 | 0.0 | 0.00 | 0.00 | 0.00 | 100 | 1016.9 |
| 20260902103038 | 73 | 42 | 0.0 | 0.0 | 0.00 | 0.00 | 0.00 | 100 | 1016.7 |
| 20260902101533 | 73 | 42 | 0.0 | 0.0 | 0.00 | 0.00 | 0.00 | 100 | 1016.7 |
| 20260902100029 | 73 | 44 | 0.0 | 0.0 | 0.00 | 0.00 | 0.00 | 100 | 1016.5 |
| 20260902094526 | 73 | 44 | 0.0 | 0.0 | 0.00 | 0.00 | 0.00 | 100 | 1016.3 |
| 20260902093021 | 74 | 44 | 0.0 | 0.0 | 0.00 | 0.00 | 0.00 | 100 | 1016.5 |
| 20260902091516 | 74 | 44 | 0.0 | 0.0 | 0.00 | 0.00 | 0.00 | 100 | 1016.6 |
| 20260902090011 | 74 | 44 | 0.0 | 0.0 | 0.00 | 0.00 | 0.00 | 100 | 1016.5 |
| 20260902084515 | 74 | 44 | 1.0 | 0.0 | 0.00 | 0.00 | 0.00 | 100 | 1016.3 |
| 20260902083003 | 74 | 43 | 0.0 | 0.0 | 0.00 | 0.00 | 0.00 | 100 | 1016.4 |
| 20260902081559 | 74 | 11 | 0.0 | 0.0 | 0.00 | 0.00 | 0.00 | 100 | 1016.6 |
| 20260902080055 | 74 | 10 | 0.0 | 0.0 | 0.00 | 0.00 | 0.00 | 100 | 1016.3 |
| 20260902074607 | 74 | 330 | 0.0 | 0.0 | 0.00 | 0.00 | 0.00 | 100 | 1016.3 |
| 20260902073045 | 74 | 331 | 0.0 | 0.0 | 0.00 | 0.00 | 0.00 | 100 | 1016.3 |
| 20260902071541 | 74 | 330 | 0.0 | 0.0 | 0.00 | 0.00 | 0.00 | 100 | 1016.2 |
| 20260902070038 | 75 | 330 | 0.0 | 0.0 | 0.00 | 0.00 | 0.00 | 100 | 1016.0 |
| 20260902064535 | 75 | 330 | 0.0 | 0.0 | 0.00 | 0.00 | 0.00 | 100 | 1015.8 |
| 20260902063052 | 75 | 331 | 0.0 | 0.0 | 0.00 | 0.00 | 0.00 | 100 | 1015.7 |
| 20260902061528 | 75 | 330 | 0.0 | 0.0 | 0.00 | 0.00 | 0.00 | 100 | 1015.6 |
| 20260902060019 | 76 | 330 | 0.0 | 0.0 | 0.00 | 0.00 | 0.00 | 100 | 1015.5 |
| 20260902054517 | 76 | 330 | 1.0 | 0.0 | 0.00 | 0.00 | 0.00 | 100 | 1015.7 |
| 20260902053010 | 77 | 16 | 1.0 | 0.0 | 0.00 | 0.00 | 0.00 | 100 | 1015.6 |
| 20260902051505 | 77 | 355 | 3.0 | 0.0 | 0.00 | 0.00 | 0.00 | 100 | 1015.8 |
| 20260902050002 | 77 | 9 | 1.0 | 0.0 | 0.00 | 0.00 | 0.00 | 100 | 1015.7 |
| 20260902044559 | 78 | 70 | 1.0 | 0.0 | 0.00 | 0.00 | 0.00 | 100 | 1015.6 |
| 20260902043108 | 80 | 355 | 0.0 | 0.0 | 0.00 | 0.00 | 0.00 | 100 | 1015.7 |
| 20260902041603 | 81 | 355 | 2.0 | 0.0 | 0.00 | 0.00 | 0.00 | 100 | 1015.5 |
| 20260902040045 | 82 | 46 | 0.0 | 0.0 | 0.00 | 0.00 | 0.00 | 100 | 1015.2 |
| 20260902034548 | 83 | 283 | 0.0 | 0.0 | 0.00 | 0.00 | 0.00 | 100 | 1014.9 |
| 20260902033036 | 84 | 288 | 1.0 | 0.0 | 0.00 | 0.00 | 0.00 | 100 | 1014.7 |
| 20260902031535 | 84 | 293 | 1.0 | 0.0 | 0.00 | 0.00 | 0.00 | 100 | 1014.6 |
| 20260902030027 | 84 | 287 | 2.0 | 0.0 | 0.00 | 0.00 | 0.00 | 100 | 1014.0 |
| 20260902024523 | 85 | 264 | 3.0 | 0.0 | 0.00 | 0.00 | 0.00 | 100 | 1013.7 |
| 20260902023018 | 85 | 237 | 3.0 | 0.0 | 0.00 | 0.00 | 0.00 | 100 | 1013.8 |
| 20260902021515 | 85 | 275 | 2.0 | 0.0 | 0.00 | 0.00 | 0.00 | 100 | 1014.2 |
| 20260902020009 | 86 | 292 | 2.0 | 0.0 | 0.00 | 0.00 | 0.00 | 100 | 1014.3 |
| 20260902014512 | 86 | 233 | 3.0 | 0.0 | 0.00 | 0.00 | 0.00 | 100 | 1014.1 |
| 20260902013002 | 86 | 290 | 3.0 | 0.0 | 0.00 | 0.00 | 0.00 | 100 | 1013.6 |
| 20260902011557 | 87 | 283 | 3.0 | 0.0 | 0.00 | 0.00 | 0.00 | 100 | 1013.6 |
| 20260902010055 | 87 | 291 | 2.0 | 0.0 | 0.00 | 0.00 | 0.00 | 100 | 1013.7 |
| 20260902004554 | 87 | 242 | 3.0 | 0.0 | 0.00 | 0.00 | 0.00 | 100 | 1013.3 |
| 20260902003121 | 87 | 263 | 3.0 | 0.0 | 0.00 | 0.00 | 0.00 | 100 | 1013.0 |
| 20260902001539 | 88 | 224 | 2.0 | 0.0 | 0.00 | 0.00 | 0.00 | 100 | 1012.6 |
| 20260902000036 | 88 | 217 | 3.0 | 0.0 | 0.00 | 0.00 | 0.00 | 100 | 1012.5 |
| 20260901234531 | 88 | 252 | 3.0 | 0.0 | 0.00 | 0.00 | 0.00 | 100 | 1012.4 |
| 20260901233027 | 89 | 194 | 2.0 | 0.0 | 0.00 | 0.00 | 0.00 | 100 | 1012.5 |